Terminal Aerodrome Forecast
Issued by NWS Charleston, WV

Current Version | Previous Version | Graphics & Text | Print | Product List | Glossary On
Versions: 1 2 3 4 5 6 7 8 9 10 11 12 13 14 15 16 17 18 19 20 21 22 23 24 25 26
200
FTUS41 KRLX 180917 AAA
TAFPKB
TAF AMD
KPKB 180917Z 1809/1906 20007KT P6SM FEW130
     FM181100 21005KT 6SM BR HZ FEW008
     FM181400 21005KT P6SM FEW250
     FM181700 23010G17KT P6SM SKC
     FM182300 22008KT P6SM SKC=

USA.gov is the U.S. government's official web portal to all federal, state and local government web resources and services.